createdAt,value
2023-03-03T00:02:25.337Z,18.90
2023-03-03T00:04:55.807Z,19.00
2023-03-03T00:07:26.107Z,18.33
2023-03-03T00:09:58.332Z,17.77
2023-03-03T00:12:31.440Z,18.77
2023-03-03T00:15:04.429Z,17.87
2023-03-03T00:17:35.401Z,19.23
2023-03-03T00:20:30.775Z,20.00
2023-03-03T00:23:18.730Z,19.30
2023-03-03T00:25:53.590Z,21.37
2023-03-03T00:28:29.242Z,18.53
2023-03-03T00:31:05.149Z,19.73
2023-03-03T00:33:37.738Z,20.97
2023-03-03T00:36:35.793Z,20.07
2023-03-03T00:39:31.472Z,21.23
2023-03-03T00:42:04.454Z,22.20
2023-03-03T00:44:46.006Z,23.30
2023-03-03T00:47:32.016Z,22.20
2023-03-03T00:50:31.607Z,22.30
2023-03-03T00:53:09.566Z,21.83
2023-03-03T00:55:40.611Z,22.87
2023-03-03T01:00:48.160Z,23.27
2023-03-03T01:03:27.340Z,23.87
2023-03-03T01:05:58.562Z,24.03
2023-03-03T01:08:29.062Z,25.10
2023-03-03T01:11:03.251Z,25.00
2023-03-03T01:13:38.005Z,24.90
2023-03-03T01:16:10.185Z,26.03
2023-03-03T01:18:43.348Z,24.80
2023-03-03T01:21:14.533Z,26.53
2023-03-03T01:26:15.272Z,27.13
2023-03-03T01:28:45.720Z,24.00
2023-03-03T01:31:16.109Z,25.63
2023-03-03T01:33:49.082Z,26.40
2023-03-03T01:36:19.390Z,25.73
2023-03-03T01:38:49.722Z,24.50
2023-03-03T01:41:20.386Z,26.37
2023-03-03T01:43:54.291Z,25.50
2023-03-03T01:46:53.209Z,25.20
2023-03-03T01:49:30.991Z,23.43
2023-03-03T01:52:04.921Z,24.17
2023-03-03T01:54:46.688Z,25.93
2023-03-03T01:57:26.036Z,24.43
2023-03-03T02:00:01.089Z,25.63
2023-03-03T02:02:33.092Z,25.33
2023-03-03T02:05:06.401Z,24.67
2023-03-03T02:07:37.191Z,25.23
2023-03-03T02:10:14.087Z,24.17
2023-03-03T02:12:48.816Z,24.13
2023-03-03T02:15:29.858Z,24.67
2023-03-03T02:18:03.902Z,23.88
2023-03-03T02:20:49.989Z,24.67
2023-03-03T02:23:29.291Z,22.83
2023-03-03T02:26:13.379Z,24.40
2023-03-03T02:28:45.077Z,24.57
2023-03-03T02:31:21.602Z,25.43
2023-03-03T02:33:54.934Z,23.83
2023-03-03T02:36:27.672Z,24.87
2023-03-03T02:39:07.492Z,24.07
2023-03-03T02:41:46.656Z,24.07
2023-03-03T02:44:20.987Z,22.90
2023-03-03T02:46:53.875Z,23.43
2023-03-03T02:49:27.937Z,25.17
2023-03-03T02:51:59.165Z,24.43
2023-03-03T02:54:32.749Z,22.47
2023-03-03T02:57:09.181Z,22.50
2023-03-03T02:59:39.554Z,23.70
2023-03-03T03:02:16.257Z,23.50
2023-03-03T03:04:46.693Z,23.10
2023-03-03T03:07:21.653Z,22.93
2023-03-03T03:09:52.180Z,22.30
2023-03-03T03:12:25.169Z,23.17
2023-03-03T03:14:58.792Z,21.97
2023-03-03T03:17:29.726Z,21.43
2023-03-03T03:20:02.504Z,22.50
2023-03-03T03:22:34.032Z,22.13
2023-03-03T03:25:04.418Z,22.10
2023-03-03T03:27:38.080Z,22.95
2023-03-03T03:30:10.575Z,22.77
2023-03-03T03:32:40.912Z,22.90
2023-03-03T03:35:13.627Z,21.85
2023-03-03T03:37:43.969Z,23.00
2023-03-03T03:40:16.096Z,22.30
2023-03-03T03:42:49.060Z,22.47
2023-03-03T03:45:19.749Z,24.20
2023-03-03T03:47:50.976Z,21.30
2023-03-03T03:50:22.521Z,21.77
2023-03-03T03:52:53.097Z,22.10
2023-03-03T03:55:23.799Z,21.55
2023-03-03T03:57:58.083Z,21.55
2023-03-03T04:00:29.997Z,21.90
2023-03-03T04:03:03.188Z,21.87
2023-03-03T04:05:33.706Z,21.83
2023-03-03T04:08:04.794Z,22.73
2023-03-03T04:10:35.487Z,22.92
2023-03-03T04:13:10.195Z,21.57
2023-03-03T04:15:40.635Z,21.63
2023-03-03T04:18:13.502Z,23.33
2023-03-03T04:20:45.156Z,21.90
2023-03-03T04:23:15.731Z,23.63
2023-03-03T04:25:46.487Z,28.70
2023-03-03T04:28:22.109Z,22.37
2023-03-03T04:30:53.797Z,21.07
2023-03-03T04:33:25.514Z,20.97
2023-03-03T04:35:55.993Z,20.95
2023-03-03T04:38:26.956Z,21.83
2023-03-03T04:40:59.667Z,26.30
2023-03-03T04:43:35.307Z,21.17
2023-03-03T04:46:07.024Z,19.73
2023-03-03T04:48:41.870Z,20.30
2023-03-03T04:51:13.588Z,21.37
2023-03-03T04:53:45.657Z,20.15
2023-03-03T04:56:17.117Z,20.63
2023-03-03T04:58:50.084Z,20.53
2023-03-03T05:01:21.011Z,20.17
2023-03-03T05:03:51.399Z,20.30
2023-03-03T05:06:22.025Z,19.00
2023-03-03T05:08:52.384Z,19.10
2023-03-03T05:11:22.759Z,20.07
2023-03-03T05:13:56.337Z,20.30
2023-03-03T05:16:26.722Z,20.23
2023-03-03T05:18:56.979Z,19.40
2023-03-03T05:21:27.557Z,19.27
2023-03-03T05:23:58.007Z,20.15
2023-03-03T05:26:28.419Z,19.40
2023-03-03T05:29:01.382Z,19.00
2023-03-03T05:31:31.829Z,19.10
2023-03-03T05:34:02.449Z,20.38
2023-03-03T05:36:33.985Z,20.67
2023-03-03T05:39:04.383Z,19.53
2023-03-03T05:41:37.098Z,20.43
2023-03-03T05:44:10.339Z,19.87
2023-03-03T05:46:40.760Z,21.13
2023-03-03T05:49:11.376Z,21.57
2023-03-03T05:51:41.844Z,20.40
2023-03-03T05:54:12.483Z,20.27
2023-03-03T05:56:42.941Z,19.48
2023-03-03T05:59:16.094Z,20.60
2023-03-03T06:01:48.425Z,21.60
2023-03-03T06:04:18.836Z,21.90
2023-03-03T06:06:49.736Z,20.30
2023-03-03T06:09:21.324Z,22.15
2023-03-03T06:11:52.997Z,20.17
2023-03-03T06:14:27.272Z,19.87
2023-03-03T06:17:00.769Z,20.90
2023-03-03T06:19:31.022Z,21.67
2023-03-03T06:22:01.329Z,21.80
2023-03-03T06:24:32.387Z,20.97
2023-03-03T06:27:03.979Z,20.10
2023-03-03T06:29:37.014Z,20.37
2023-03-03T06:32:07.874Z,21.73
2023-03-03T06:34:38.626Z,20.27
2023-03-03T06:37:09.076Z,21.33
2023-03-03T06:39:41.502Z,21.73
2023-03-03T06:42:12.369Z,19.70
2023-03-03T06:44:45.477Z,20.23
2023-03-03T06:47:19.230Z,21.77
2023-03-03T06:49:49.526Z,22.73
2023-03-03T06:52:25.285Z,21.50
2023-03-03T06:54:59.211Z,22.40
2023-03-03T06:57:32.538Z,21.23
2023-03-03T07:00:20.480Z,23.20
2023-03-03T07:02:51.351Z,22.77
2023-03-03T07:05:22.142Z,22.65
2023-03-03T07:07:52.774Z,20.98
2023-03-03T07:10:28.057Z,21.90
2023-03-03T07:13:12.308Z,21.60
2023-03-03T07:15:45.768Z,21.93
2023-03-03T07:18:37.347Z,21.20
2023-03-03T07:21:22.736Z,22.33
2023-03-03T07:23:55.485Z,22.30
2023-03-03T07:26:30.979Z,22.27
2023-03-03T07:29:04.424Z,20.63
2023-03-03T07:31:40.479Z,21.60
2023-03-03T07:34:24.401Z,20.47
2023-03-03T07:36:59.746Z,20.33
2023-03-03T07:39:40.426Z,19.67
2023-03-03T07:42:27.844Z,19.35
2023-03-03T07:45:31.174Z,19.77
2023-03-03T07:48:18.139Z,18.50
2023-03-03T07:50:50.072Z,19.47
2023-03-03T07:53:31.578Z,19.97
2023-03-03T07:56:05.039Z,19.30
2023-03-03T07:58:42.393Z,20.17
2023-03-03T08:01:43.764Z,19.40
2023-03-03T08:04:29.779Z,18.25
2023-03-03T08:07:02.456Z,19.77
2023-03-03T08:09:55.623Z,18.97
2023-03-03T08:12:47.431Z,18.73
2023-03-03T08:15:27.110Z,19.63
2023-03-03T08:17:59.201Z,19.60
2023-03-03T08:20:58.313Z,19.90
2023-03-03T08:23:28.710Z,19.53
2023-03-03T08:25:59.091Z,21.20
2023-03-03T08:28:29.713Z,18.33
2023-03-03T08:31:15.379Z,19.70
2023-03-03T08:33:47.536Z,19.93
2023-03-03T08:36:20.676Z,19.42
2023-03-03T08:38:51.070Z,18.63
2023-03-03T08:41:21.340Z,19.63
2023-03-03T08:43:51.834Z,20.20
2023-03-03T08:46:27.254Z,19.42
2023-03-03T08:48:57.757Z,18.97
2023-03-03T08:51:34.380Z,19.02
2023-03-03T08:54:04.883Z,19.13
2023-03-03T08:56:35.240Z,19.13
2023-03-03T08:59:05.700Z,18.03
2023-03-03T09:01:38.051Z,17.85
2023-03-03T09:04:08.515Z,17.80
2023-03-03T09:06:41.600Z,17.13
2023-03-03T09:09:11.908Z,16.67
2023-03-03T09:11:43.643Z,15.10
2023-03-03T09:14:16.862Z,16.30
2023-03-03T09:16:54.523Z,17.20
2023-03-03T09:19:29.631Z,16.53
2023-03-03T09:22:14.866Z,15.37
2023-03-03T09:24:45.917Z,15.50
2023-03-03T09:27:22.625Z,16.15
2023-03-03T09:29:52.982Z,15.27
2023-03-03T09:32:39.281Z,15.33
2023-03-03T09:35:39.212Z,14.33
2023-03-03T09:38:30.481Z,15.40
2023-03-03T09:41:30.139Z,16.42
2023-03-03T09:44:42.956Z,14.97
2023-03-03T09:47:42.076Z,15.43
2023-03-03T09:50:29.519Z,14.80
2023-03-03T09:53:19.962Z,15.37
2023-03-03T09:55:59.455Z,16.37
2023-03-03T09:59:00.314Z,15.70
2023-03-03T10:01:55.576Z,14.73
2023-03-03T10:05:19.348Z,14.37
2023-03-03T10:08:11.536Z,13.40
2023-03-03T10:10:56.745Z,12.97
2023-03-03T10:13:49.810Z,11.43
2023-03-03T10:16:45.354Z,13.20
2023-03-03T10:19:36.997Z,13.13
2023-03-03T10:22:27.493Z,11.70
2023-03-03T10:25:16.632Z,11.70
2023-03-03T10:28:19.438Z,10.87
2023-03-03T10:31:07.612Z,11.27
2023-03-03T10:33:50.939Z,10.97
2023-03-03T10:36:48.946Z,11.50
2023-03-03T10:39:45.765Z,10.80
2023-03-03T10:42:48.385Z,10.40
2023-03-03T10:45:56.957Z,10.20
2023-03-03T10:48:49.451Z,9.40
2023-03-03T10:51:31.085Z,8.57
2023-03-03T10:54:18.251Z,8.57
2023-03-03T10:56:59.958Z,8.40
2023-03-03T11:00:04.529Z,7.50
2023-03-03T11:02:53.625Z,8.83
2023-03-03T11:05:37.451Z,8.00
2023-03-03T11:08:14.437Z,8.13
2023-03-03T11:10:57.673Z,7.80
2023-03-03T11:13:39.664Z,7.60
2023-03-03T11:16:25.662Z,8.40
2023-03-03T11:19:24.634Z,7.60
2023-03-03T11:22:05.911Z,9.27
2023-03-03T11:28:10.074Z,8.97
2023-03-03T11:31:01.618Z,8.90
2023-03-03T11:33:45.155Z,7.97
2023-03-03T11:36:24.188Z,8.10
2023-03-03T11:39:02.478Z,8.70
2023-03-03T11:41:41.318Z,8.03
2023-03-03T11:44:25.903Z,8.80
2023-03-03T11:47:02.361Z,8.87
2023-03-03T11:49:40.714Z,7.80
2023-03-03T11:52:28.949Z,7.63
2023-03-03T11:55:08.014Z,7.03
2023-03-03T11:57:46.426Z,6.80
2023-03-03T12:00:32.365Z,6.43
2023-03-03T12:03:19.915Z,7.00
2023-03-03T12:06:01.522Z,6.90
2023-03-03T12:08:50.117Z,7.13
2023-03-03T12:11:28.963Z,6.47
2023-03-03T12:14:06.674Z,6.87
2023-03-03T12:16:48.447Z,6.60
2023-03-03T12:19:46.419Z,6.77
2023-03-03T12:22:47.186Z,7.07
2023-03-03T12:25:32.893Z,6.63
2023-03-03T12:28:12.219Z,7.00
2023-03-03T12:31:02.919Z,6.87
2023-03-03T12:33:54.457Z,6.30
2023-03-03T12:39:35.445Z,6.40
2023-03-03T12:42:23.580Z,6.87
2023-03-03T12:45:05.780Z,6.10
2023-03-03T12:47:42.473Z,7.33
2023-03-03T12:50:34.147Z,7.47
2023-03-03T12:53:17.013Z,8.00
2023-03-03T12:55:57.060Z,7.50
2023-03-03T12:58:45.152Z,7.80
2023-03-03T13:01:33.207Z,8.23
2023-03-03T13:04:13.072Z,8.17
2023-03-03T13:06:50.692Z,7.50
2023-03-03T13:09:38.558Z,7.70
2023-03-03T13:12:33.918Z,7.07
2023-03-03T13:15:32.158Z,8.30
2023-03-03T13:18:22.876Z,8.10
2023-03-03T13:20:58.883Z,6.70
2023-03-03T13:23:44.959Z,8.40
2023-03-03T13:26:24.082Z,9.00
2023-03-03T13:29:14.294Z,9.33
2023-03-03T13:31:51.576Z,9.43
2023-03-03T13:34:40.472Z,10.07
2023-03-03T13:37:23.861Z,10.17
2023-03-03T13:40:03.649Z,10.67
2023-03-03T13:42:42.844Z,11.17
2023-03-03T13:45:27.615Z,10.67
2023-03-03T13:48:12.103Z,11.00
2023-03-03T13:50:50.458Z,12.87
2023-03-03T13:53:45.299Z,11.87
2023-03-03T13:56:35.912Z,10.43
2023-03-03T13:59:18.422Z,10.50
2023-03-03T14:02:01.157Z,10.80
2023-03-03T14:04:50.006Z,10.60
2023-03-03T14:07:29.435Z,11.57
2023-03-03T14:10:06.841Z,11.20
2023-03-03T14:12:47.514Z,11.43
2023-03-03T14:15:26.931Z,12.45
2023-03-03T14:18:19.856Z,12.87
2023-03-03T14:20:55.998Z,11.17
2023-03-03T14:23:34.123Z,11.23
2023-03-03T14:26:12.957Z,10.73
2023-03-03T14:28:46.679Z,13.00
2023-03-03T14:31:26.558Z,13.73
2023-03-03T14:34:04.622Z,13.40
2023-03-03T14:36:43.880Z,14.87
2023-03-03T14:39:35.930Z,14.87
2023-03-03T14:42:15.779Z,12.97
2023-03-03T14:44:59.449Z,14.10
2023-03-03T14:47:30.678Z,14.03
2023-03-03T14:52:37.969Z,15.70
2023-03-03T14:55:37.096Z,16.90
2023-03-03T14:58:10.413Z,18.73
2023-03-03T15:00:40.823Z,19.37
2023-03-03T15:03:25.472Z,19.87
2023-03-03T15:05:58.865Z,20.50
2023-03-03T15:08:37.248Z,19.20
2023-03-03T15:11:24.958Z,17.87
2023-03-03T15:13:55.422Z,18.53
2023-03-03T15:16:27.705Z,18.77
2023-03-03T15:19:43.649Z,19.03
2023-03-03T15:22:25.253Z,19.30
2023-03-03T15:25:06.777Z,19.40
2023-03-03T15:27:44.183Z,18.90
2023-03-03T15:30:27.227Z,18.20
2023-03-03T15:33:07.415Z,16.90
2023-03-03T15:35:53.550Z,17.93
2023-03-03T15:38:38.702Z,17.13
2023-03-03T15:41:25.910Z,17.53
2023-03-03T15:44:17.215Z,16.27
2023-03-03T15:47:21.331Z,17.23
2023-03-03T15:50:10.783Z,17.50
2023-03-03T15:52:54.006Z,16.63
2023-03-03T15:55:38.593Z,16.33
2023-03-03T15:58:57.309Z,17.33
2023-03-03T16:01:32.923Z,17.17
2023-03-03T16:04:08.172Z,20.27
2023-03-03T16:06:50.555Z,19.30
2023-03-03T16:09:35.173Z,20.03
2023-03-03T16:12:17.242Z,19.63
2023-03-03T16:15:19.952Z,21.00
2023-03-03T16:18:01.809Z,18.77
2023-03-03T16:20:43.330Z,19.43
2023-03-03T16:26:20.293Z,18.27
2023-03-03T16:29:05.755Z,19.33
2023-03-03T16:31:47.957Z,20.87
2023-03-03T16:34:27.533Z,20.60
2023-03-03T16:37:07.893Z,20.13
2023-03-03T16:39:54.199Z,20.37
2023-03-03T16:42:30.954Z,17.57
2023-03-03T16:45:26.007Z,17.57
2023-03-03T16:48:16.701Z,17.90
2023-03-03T16:50:57.268Z,18.13
2023-03-03T16:53:52.005Z,17.70
2023-03-03T16:56:26.275Z,17.33
2023-03-03T16:59:45.381Z,17.07
2023-03-03T17:02:44.745Z,17.43
2023-03-03T17:05:32.799Z,19.13
2023-03-03T17:08:43.991Z,18.50
2023-03-03T17:11:24.469Z,17.15
2023-03-03T17:14:24.038Z,16.73
2023-03-03T17:17:01.588Z,18.10
2023-03-03T17:19:47.478Z,17.47
2023-03-03T17:22:28.440Z,17.90
2023-03-03T17:25:11.326Z,17.45
2023-03-03T17:28:03.361Z,19.30
2023-03-03T17:30:44.784Z,18.93
2023-03-03T17:36:18.386Z,17.43
2023-03-03T17:39:10.136Z,19.77
2023-03-03T17:41:48.006Z,18.23
2023-03-03T17:44:27.436Z,19.80
2023-03-03T17:47:03.174Z,19.27
2023-03-03T17:50:11.000Z,18.23
2023-03-03T17:53:20.369Z,18.70
2023-03-03T17:56:16.678Z,17.67
2023-03-03T17:59:38.486Z,17.87
2023-03-03T18:05:46.724Z,17.30
2023-03-03T18:08:39.319Z,20.17
2023-03-03T18:11:42.777Z,20.23
2023-03-03T18:15:17.263Z,19.73
2023-03-03T18:18:04.372Z,18.40
2023-03-03T18:20:50.090Z,19.23
2023-03-03T18:23:35.624Z,18.33
2023-03-03T18:26:27.996Z,20.00
2023-03-03T18:29:20.563Z,19.07
2023-03-03T18:32:22.479Z,18.30
2023-03-03T18:35:32.535Z,18.73
2023-03-03T18:38:35.920Z,17.87
2023-03-03T18:41:08.278Z,20.20
2023-03-03T18:44:01.757Z,19.10
2023-03-03T18:46:52.376Z,21.50
2023-03-03T18:50:01.011Z,20.90
2023-03-03T18:52:33.093Z,21.53
2023-03-03T18:55:28.353Z,20.67
2023-03-03T18:58:35.777Z,19.17
2023-03-03T19:01:44.581Z,20.23
2023-03-03T19:04:27.108Z,20.57
2023-03-03T19:07:26.569Z,18.77
2023-03-03T19:10:02.932Z,21.47
2023-03-03T19:12:57.911Z,20.57
2023-03-03T19:16:01.496Z,20.90
2023-03-03T19:18:36.448Z,19.77
2023-03-03T19:21:10.494Z,19.90
2023-03-03T19:23:54.500Z,19.67
2023-03-03T19:26:48.370Z,21.37
2023-03-03T19:29:41.678Z,20.80
2023-03-03T19:32:32.576Z,20.57
2023-03-03T19:35:23.305Z,19.30
2023-03-03T19:38:08.950Z,20.23
2023-03-03T19:40:48.919Z,19.87
2023-03-03T19:43:36.245Z,20.03
2023-03-03T19:46:30.130Z,21.13
2023-03-03T19:49:11.855Z,22.67
2023-03-03T19:51:55.611Z,20.27
2023-03-03T19:54:51.304Z,20.80
2023-03-03T19:57:38.511Z,21.27
2023-03-03T20:00:20.473Z,21.10
2023-03-03T20:03:18.496Z,23.03
2023-03-03T20:05:54.626Z,21.67
2023-03-03T20:08:37.045Z,20.77
2023-03-03T20:11:15.490Z,22.30
2023-03-03T20:13:57.030Z,20.47
2023-03-03T20:16:41.544Z,22.13
2023-03-03T20:19:32.058Z,22.90
2023-03-03T20:22:12.415Z,22.67
2023-03-03T20:25:10.555Z,22.80
2023-03-03T20:27:53.793Z,23.00
2023-03-03T20:30:38.876Z,23.13
2023-03-03T20:33:34.146Z,21.33
2023-03-03T20:36:16.836Z,23.93
2023-03-03T20:39:04.424Z,23.77
2023-03-03T20:41:56.526Z,24.00
2023-03-03T20:44:43.519Z,22.90
2023-03-03T20:47:24.002Z,22.13
2023-03-03T20:50:15.670Z,22.50
2023-03-03T20:53:03.779Z,22.83
2023-03-03T20:55:49.896Z,22.73
2023-03-03T20:58:30.566Z,24.07
2023-03-03T21:01:09.186Z,23.77
2023-03-03T21:03:43.276Z,23.23
2023-03-03T21:06:18.039Z,25.20
2023-03-03T21:08:54.381Z,25.13
2023-03-03T21:11:27.732Z,24.63
2023-03-03T21:14:02.583Z,25.37
2023-03-03T21:16:36.778Z,25.07
2023-03-03T21:19:10.147Z,25.37
2023-03-03T21:21:43.148Z,23.27
2023-03-03T21:24:19.970Z,24.37
2023-03-03T21:26:55.237Z,23.60
2023-03-03T21:29:31.484Z,23.33
2023-03-03T21:32:04.143Z,23.53
2023-03-03T21:34:36.429Z,24.10
2023-03-03T21:37:08.652Z,23.17
2023-03-03T21:39:41.614Z,21.57
2023-03-03T21:42:14.668Z,24.87
2023-03-03T21:44:49.831Z,21.30
2023-03-03T21:47:22.782Z,22.93
2023-03-03T21:49:55.222Z,23.00
2023-03-03T21:52:26.013Z,22.97
2023-03-03T21:54:56.400Z,21.35
2023-03-03T21:57:27.011Z,22.77
2023-03-03T22:00:00.198Z,23.20
2023-03-03T22:02:30.864Z,21.70
2023-03-03T22:05:03.281Z,22.13
2023-03-03T22:07:33.604Z,21.27
2023-03-03T22:10:04.023Z,19.47
2023-03-03T22:12:34.275Z,20.83
2023-03-03T22:15:08.558Z,21.40
2023-03-03T22:17:40.791Z,22.23
2023-03-03T22:20:14.790Z,22.87
2023-03-03T22:22:45.332Z,21.97
2023-03-03T22:25:15.709Z,22.23
2023-03-03T22:27:46.002Z,20.67
2023-03-03T22:30:20.034Z,21.40
2023-03-03T22:32:52.413Z,22.73
2023-03-03T22:35:22.694Z,20.93
2023-03-03T22:37:53.158Z,25.13
2023-03-03T22:40:23.755Z,23.30
2023-03-03T22:42:54.178Z,24.35
2023-03-03T22:45:27.234Z,23.30
2023-03-03T22:47:57.577Z,23.73
2023-03-03T22:50:28.365Z,23.80
2023-03-03T22:52:58.668Z,22.63
2023-03-03T22:55:29.407Z,22.67
2023-03-03T22:57:59.780Z,24.20
2023-03-03T23:00:33.000Z,23.63
2023-03-03T23:03:03.588Z,22.23
2023-03-03T23:05:34.119Z,24.27
2023-03-03T23:08:04.806Z,24.65
2023-03-03T23:10:35.830Z,22.58
2023-03-03T23:13:06.648Z,23.42
2023-03-03T23:15:40.068Z,23.02
2023-03-03T23:18:10.657Z,23.17
2023-03-03T23:20:45.862Z,23.83
2023-03-03T23:23:16.379Z,20.97
2023-03-03T23:25:46.690Z,22.27
2023-03-03T23:28:17.213Z,21.30
2023-03-03T23:30:52.082Z,22.75
2023-03-03T23:33:23.646Z,21.00
2023-03-03T23:38:24.109Z,20.27
2023-03-03T23:40:54.499Z,19.90
2023-03-03T23:43:24.825Z,22.00
2023-03-03T23:45:57.770Z,20.90
2023-03-03T23:48:28.151Z,20.73
2023-03-03T23:50:58.555Z,21.83
2023-03-03T23:53:29.089Z,19.57
2023-03-03T23:55:59.449Z,18.85
2023-03-03T23:58:29.691Z,20.33
